METAR AND TAF INFORMATION
METAR FOR SBUR
ADDS - METARS form results

(0558 UTC 23 May 2019)
Data provider http://aviationweather.gov/metar/data/
 
Forecast for: SBUR (UBERABA , BR)
Text: TAF SBUR 222130Z 2300/2312 16005KT 9000 NSCTN16/2309Z TX19/2311Z
Forecast period: 0000 to 0100 UTC 23 May 2019
Forecast type: FROM: standard forecast or significant change
Winds: from the SSE (160 degrees) at 6 MPH (5 knots; 2.6 m/s)
Visibility: 6 miles (9 km)
Ceiling: unknown
Clouds: missing
Weather: no significant weather forecast for this period
Text: BECMG 2301/2303 06005KT RMK PHG
Forecast period: 0100 to 1200 UTC 23 May 2019
Forecast type: BECOMING: Conditions expected to become as follows by 0300 UTC 23 May 2019
Winds: from the ENE (60 degrees) at 6 MPH (5 knots; 2.6 m/s)
Visibility: 6 miles (9 km)
Ceiling: unknown
Clouds: missing
Weather: no significant weather forecast for this period

 AIRPORT MAP

 RUNWAY INFORMATION
Runway 17 Runway length 5771 ft Runway width 148 ft
Runway elevation 0 ft Runway displaced threshold 0 ft Runway heading 0
Runway 35 Runway length 5771 ft Runway width 148 ft
Runway elevation 0 ft Runway displaced threshold 0 ft Runway heading 0

 AIRPORT FREQUENCIES
Type APP Name APP Frequency 120.8 MHZ
Type RDO Name RDO Frequency 120.8 MHZ
Type TWR Name TWR Frequency 118.5 MHZ

 AIRPORT NEAR NAVIGATION AIDS
Type NDB Name Uberaba Frequency 235 KHZ



Powered by Virtual Airlines Manager [v2.6.2]